createdAt,value
2017-08-02T00:00:34.213Z,100579.95
2017-08-02T00:01:40.159Z,100582.78
2017-08-02T00:02:46.265Z,100586.44
2017-08-02T00:03:52.353Z,100579.74
2017-08-02T00:04:58.381Z,100578.84
2017-08-02T00:06:04.399Z,100577.97
2017-08-02T00:07:17.493Z,100578.67
2017-08-02T00:08:23.511Z,100570.45
2017-08-02T00:09:29.527Z,100565.92
2017-08-02T00:10:35.610Z,100570.65
2017-08-02T00:11:41.627Z,100566.64
2017-08-02T00:12:48.528Z,100558.39
2017-08-02T00:13:54.723Z,100559.95
2017-08-02T00:15:00.757Z,100553.75
2017-08-02T00:16:07.386Z,100556.78
2017-08-02T00:17:13.461Z,100555.72
2017-08-02T00:18:20.525Z,100554.81
2017-08-02T00:19:26.545Z,100552.06
2017-08-02T00:20:38.166Z,100551.70
2017-08-02T00:21:44.194Z,100549.87
2017-08-02T00:22:50.314Z,100551.20
2017-08-02T00:23:57.287Z,100551.64
2017-08-02T00:25:03.289Z,100554.38
2017-08-02T00:26:09.802Z,100554.67
2017-08-02T00:27:15.903Z,100554.59
2017-08-02T00:28:21.954Z,100559.54
2017-08-02T00:29:27.982Z,100565.66
2017-08-02T00:30:34.026Z,100559.39
2017-08-02T00:31:40.114Z,100555.24
2017-08-02T00:32:46.144Z,100558.06
2017-08-02T00:33:52.962Z,100552.53
2017-08-02T00:34:58.973Z,100552.80
2017-08-02T00:36:04.993Z,100549.77
2017-08-02T00:37:11.114Z,100555.91
2017-08-02T00:38:19.970Z,100550.97
2017-08-02T00:39:26.066Z,100558.14
2017-08-02T00:40:32.085Z,100550.03
2017-08-02T00:41:38.180Z,100558.27
2017-08-02T00:42:44.193Z,100554.77
2017-08-02T00:43:50.626Z,100554.42
2017-08-02T00:44:56.708Z,100548.08
2017-08-02T00:46:02.722Z,100545.95
2017-08-02T00:47:08.726Z,100547.42
2017-08-02T00:48:14.743Z,100548.82
2017-08-02T00:49:20.750Z,100553.69
2017-08-02T00:50:26.798Z,100552.60
2017-08-02T00:51:32.814Z,100558.66
2017-08-02T00:52:38.979Z,100554.70
2017-08-02T00:53:45.023Z,100558.16
2017-08-02T00:54:51.037Z,100555.33
2017-08-02T00:55:57.109Z,100551.57
2017-08-02T00:57:03.113Z,100553.52
2017-08-02T00:58:09.570Z,100550.72
2017-08-02T00:59:15.586Z,100552.21
2017-08-02T01:00:22.502Z,100541.94
2017-08-02T01:01:28.346Z,100542.98
2017-08-02T01:02:34.363Z,100543.70
2017-08-02T01:03:40.172Z,100540.91
2017-08-02T01:04:46.178Z,100548.72
2017-08-02T01:05:52.194Z,100543.06
2017-08-02T01:06:58.254Z,100544.62
2017-08-02T01:08:04.277Z,100543.98
2017-08-02T01:09:10.298Z,100545.50
2017-08-02T01:10:17.236Z,100541.31
2017-08-02T01:11:23.361Z,100545.80
2017-08-02T01:12:29.397Z,100549.59
2017-08-02T01:13:35.423Z,100547.91
2017-08-02T01:14:42.054Z,100551.88
2017-08-02T01:15:48.272Z,100545.37
2017-08-02T01:16:54.311Z,100545.11
2017-08-02T01:18:00.375Z,100545.37
2017-08-02T01:19:06.496Z,100542.71
2017-08-02T01:20:12.321Z,100544.31
2017-08-02T01:21:18.338Z,100547.53
2017-08-02T01:22:25.147Z,100535.57
2017-08-02T01:23:31.190Z,100536.21
2017-08-02T01:24:37.207Z,100539.70
2017-08-02T01:25:43.297Z,100537.36
2017-08-02T01:26:49.313Z,100540.16
2017-08-02T01:27:55.330Z,100537.06
2017-08-02T01:29:01.408Z,100547.84
2017-08-02T01:30:08.310Z,100536.58
2017-08-02T01:31:14.310Z,100535.55
2017-08-02T01:32:20.469Z,100538.22
2017-08-02T01:33:26.500Z,100537.42
2017-08-02T01:34:32.567Z,100539.03
2017-08-02T01:35:39.385Z,100538.80
2017-08-02T01:36:45.454Z,100546.44
2017-08-02T01:37:52.053Z,100539.06
2017-08-02T01:38:58.098Z,100547.66
2017-08-02T01:40:04.146Z,100553.48
2017-08-02T01:41:10.235Z,100546.75
2017-08-02T01:42:16.997Z,100555.91
2017-08-02T01:43:23.117Z,100556.67
2017-08-02T01:44:29.289Z,100549.08
2017-08-02T01:45:34.959Z,100546.95
2017-08-02T01:46:40.969Z,100553.74
2017-08-02T01:47:47.566Z,100550.95
2017-08-02T01:48:53.346Z,100555.02
2017-08-02T01:49:59.362Z,100554.24
2017-08-02T01:51:05.505Z,100555.47
2017-08-02T01:52:11.605Z,100559.75
2017-08-02T01:53:18.218Z,100553.06
2017-08-02T01:54:24.290Z,100555.59
2017-08-02T01:55:29.983Z,100559.02
2017-08-02T01:56:36.058Z,100560.66
2017-08-02T01:57:41.726Z,100562.69
2017-08-02T01:58:48.404Z,100567.94
2017-08-02T01:59:54.463Z,100571.78
2017-08-02T02:00:59.774Z,100575.25
2017-08-02T02:02:05.614Z,100573.86
2017-08-02T02:03:11.379Z,100578.33
2017-08-02T02:04:18.059Z,100577.63
2017-08-02T02:05:24.138Z,100582.95
2017-08-02T02:06:30.158Z,100585.47
2017-08-02T02:07:36.215Z,100586.92
2017-08-02T02:08:42.213Z,100586.66
2017-08-02T02:09:48.229Z,100586.80
2017-08-02T02:10:54.358Z,100584.71
2017-08-02T02:12:00.358Z,100590.88
2017-08-02T02:13:06.402Z,100597.28
2017-08-02T02:14:12.483Z,100595.12
2017-08-02T02:15:17.815Z,100599.48
2017-08-02T02:16:23.624Z,100595.61
2017-08-02T02:17:29.709Z,100599.19
2017-08-02T02:18:35.787Z,100600.42
2017-08-02T02:19:42.221Z,100597.33
2017-08-02T02:20:48.254Z,100599.16
2017-08-02T02:21:55.068Z,100597.58
2017-08-02T02:23:01.151Z,100600.25
2017-08-02T02:24:07.187Z,100596.98
2017-08-02T02:25:13.258Z,100602.61
2017-08-02T02:26:19.282Z,100603.52
2017-08-02T02:27:24.910Z,100604.31
2017-08-02T02:28:30.903Z,100601.81
2017-08-02T02:29:36.949Z,100606.87
2017-08-02T02:30:42.957Z,100611.95
2017-08-02T02:31:48.969Z,100617.72
2017-08-02T02:32:55.133Z,100613.94
2017-08-02T02:34:01.159Z,100615.98
2017-08-02T02:35:07.210Z,100613.15
2017-08-02T02:36:13.212Z,100612.44
2017-08-02T02:37:19.218Z,100607.86
2017-08-02T02:38:25.269Z,100610.85
2017-08-02T02:39:31.269Z,100606.84
2017-08-02T02:40:37.363Z,100612.06
2017-08-02T02:41:43.453Z,100610.91
2017-08-02T02:42:49.551Z,100614.06
2017-08-02T02:43:55.665Z,100611.39
2017-08-02T02:45:01.699Z,100612.55
2017-08-02T02:46:07.822Z,100610.84
2017-08-02T02:47:13.890Z,100620.06
2017-08-02T02:48:19.994Z,100612.31
2017-08-02T02:49:26.019Z,100616.66
2017-08-02T02:50:32.085Z,100620.54
2017-08-02T02:51:38.147Z,100623.43
2017-08-02T02:52:44.163Z,100624.34
2017-08-02T02:53:50.199Z,100634.75
2017-08-02T02:54:58.949Z,100630.73
2017-08-02T02:56:05.686Z,100629.46
2017-08-02T02:57:11.829Z,100629.77
2017-08-02T02:58:17.837Z,100635.95
2017-08-02T02:59:23.837Z,100643.59
2017-08-02T03:00:30.639Z,100647.55
2017-08-02T03:01:36.798Z,100647.88
2017-08-02T03:02:42.837Z,100648.14
2017-08-02T03:03:48.849Z,100649.19
2017-08-02T03:04:54.870Z,100648.20
2017-08-02T03:06:00.876Z,100647.27
2017-08-02T03:07:06.985Z,100655.49
2017-08-02T03:08:13.031Z,100657.87
2017-08-02T03:09:19.050Z,100658.36
2017-08-02T03:10:25.646Z,100657.11
2017-08-02T03:11:31.658Z,100665.11
2017-08-02T03:12:37.702Z,100664.00
2017-08-02T03:13:43.771Z,100668.48
2017-08-02T03:14:50.558Z,100667.44
2017-08-02T03:15:56.563Z,100669.91
2017-08-02T03:17:02.679Z,100680.14
2017-08-02T03:18:08.711Z,100678.09
2017-08-02T03:19:14.769Z,100674.31
2017-08-02T03:20:20.822Z,100678.38
2017-08-02T03:21:27.463Z,100686.72
2017-08-02T03:22:33.478Z,100681.16
2017-08-02T03:23:39.527Z,100687.52
2017-08-02T03:24:46.366Z,100687.32
2017-08-02T03:25:52.390Z,100690.81
2017-08-02T03:26:58.464Z,100694.44
2017-08-02T03:28:05.146Z,100696.38
2017-08-02T03:29:11.305Z,100694.38
2017-08-02T03:30:17.360Z,100695.63
2017-08-02T03:31:23.403Z,100699.65
2017-08-02T03:32:29.428Z,100697.89
2017-08-02T03:33:35.438Z,100693.81
2017-08-02T03:34:41.456Z,100694.59
2017-08-02T03:35:47.482Z,100699.70
2017-08-02T03:36:53.546Z,100707.04
2017-08-02T03:37:59.551Z,100705.70
2017-08-02T03:39:04.887Z,100710.18
2017-08-02T03:40:10.993Z,100708.03
2017-08-02T03:41:17.030Z,100703.06
2017-08-02T03:42:23.055Z,100708.63
2017-08-02T03:43:29.120Z,100708.82
2017-08-02T03:44:35.170Z,100702.83
2017-08-02T03:45:41.162Z,100707.77
2017-08-02T03:46:47.281Z,100713.09
2017-08-02T03:47:53.296Z,100711.52
2017-08-02T03:48:59.366Z,100714.56
2017-08-02T03:50:05.371Z,100705.28
2017-08-02T03:51:11.450Z,100710.16
2017-08-02T03:52:17.490Z,100710.20
2017-08-02T03:53:23.612Z,100711.33
2017-08-02T03:54:29.715Z,100710.09
2017-08-02T03:55:35.926Z,100710.31
2017-08-02T03:56:42.565Z,100708.75
2017-08-02T03:57:48.690Z,100707.58
2017-08-02T03:58:55.295Z,100710.99
2017-08-02T04:00:01.358Z,100711.08
2017-08-02T04:01:07.194Z,100711.39
2017-08-02T04:02:14.888Z,100707.64
2017-08-02T04:03:21.041Z,100711.94
2017-08-02T04:04:27.039Z,100709.04
2017-08-02T04:05:33.050Z,100710.00
2017-08-02T04:06:39.740Z,100706.68
2017-08-02T04:07:46.315Z,100705.37
2017-08-02T04:08:53.563Z,100700.77
2017-08-02T04:09:59.573Z,100709.16
2017-08-02T04:11:05.590Z,100703.05
2017-08-02T04:12:11.694Z,100702.39
2017-08-02T04:13:17.810Z,100707.33
2017-08-02T04:14:23.961Z,100698.22
2017-08-02T04:15:30.566Z,100703.61
2017-08-02T04:16:37.229Z,100699.32
2017-08-02T04:17:43.482Z,100700.00
2017-08-02T04:18:49.488Z,100701.28
2017-08-02T04:19:55.574Z,100703.08
2017-08-02T04:21:01.522Z,100706.25
2017-08-02T04:22:07.635Z,100706.06
2017-08-02T04:23:13.675Z,100704.32
2017-08-02T04:24:19.699Z,100708.50
2017-08-02T04:25:25.761Z,100711.11
2017-08-02T04:26:31.848Z,100708.44
2017-08-02T04:27:37.887Z,100710.56
2017-08-02T04:28:43.929Z,100719.88
2017-08-02T04:29:49.954Z,100712.87
2017-08-02T04:30:56.025Z,100715.19
2017-08-02T04:32:02.085Z,100713.52
2017-08-02T04:33:08.225Z,100714.73
2017-08-02T04:34:14.258Z,100718.09
2017-08-02T04:35:20.291Z,100712.75
2017-08-02T04:36:26.395Z,100718.72
2017-08-02T04:37:33.106Z,100720.25
2017-08-02T04:38:39.144Z,100719.47
2017-08-02T04:39:45.196Z,100723.55
2017-08-02T04:40:51.248Z,100719.17
2017-08-02T04:41:57.315Z,100720.78
2017-08-02T04:43:04.842Z,100720.44
2017-08-02T04:44:10.952Z,100721.45
2017-08-02T04:45:16.982Z,100721.05
2017-08-02T04:46:23.106Z,100725.20
2017-08-02T04:47:29.150Z,100731.96
2017-08-02T04:48:35.178Z,100726.81
2017-08-02T04:49:41.358Z,100726.37
2017-08-02T04:50:47.985Z,100721.14
2017-08-02T04:51:54.063Z,100730.08
2017-08-02T04:53:00.226Z,100728.69
2017-08-02T04:54:07.625Z,100732.15
2017-08-02T04:55:14.709Z,100730.84
2017-08-02T04:56:20.869Z,100727.91
2017-08-02T04:57:26.894Z,100723.62
2017-08-02T04:58:32.976Z,100724.05
2017-08-02T04:59:39.008Z,100718.11
2017-08-02T05:00:45.323Z,100716.41
2017-08-02T05:01:51.352Z,100724.74
2017-08-02T05:02:57.469Z,100722.23
2017-08-02T05:04:03.563Z,100727.96
2017-08-02T05:05:09.599Z,100728.06
2017-08-02T05:06:15.719Z,100721.27
2017-08-02T05:07:21.790Z,100730.41
2017-08-02T05:08:27.823Z,100726.49
2017-08-02T05:09:33.896Z,100733.80
2017-08-02T05:10:40.019Z,100731.09
2017-08-02T05:11:46.054Z,100732.98
2017-08-02T05:12:52.085Z,100729.24
2017-08-02T05:13:58.153Z,100735.06
2017-08-02T05:15:04.283Z,100740.53
2017-08-02T05:16:10.366Z,100743.38
2017-08-02T05:17:17.045Z,100744.35
2017-08-02T05:18:23.173Z,100743.42
2017-08-02T05:19:29.226Z,100744.30
2017-08-02T05:20:35.298Z,100740.02
2017-08-02T05:21:45.178Z,100741.41
2017-08-02T05:22:51.230Z,100744.55
2017-08-02T05:23:57.312Z,100746.09
2017-08-02T05:25:03.360Z,100754.58
2017-08-02T05:26:09.078Z,100749.78
2017-08-02T05:27:15.225Z,100754.87
2017-08-02T05:28:21.307Z,100752.84
2017-08-02T05:29:27.458Z,100754.33
2017-08-02T05:30:33.524Z,100751.27
2017-08-02T05:31:39.629Z,100743.21
2017-08-02T05:32:46.653Z,100744.47
2017-08-02T05:33:52.688Z,100742.93
2017-08-02T05:34:59.482Z,100741.02
2017-08-02T05:36:05.594Z,100741.02
2017-08-02T05:37:11.697Z,100743.44
2017-08-02T05:38:17.806Z,100740.27
2017-08-02T05:39:23.881Z,100736.45
2017-08-02T05:40:29.958Z,100735.92
2017-08-02T05:41:36.194Z,100741.13
2017-08-02T05:42:42.313Z,100746.45
2017-08-02T05:43:48.349Z,100751.45
2017-08-02T05:44:54.534Z,100750.31
2017-08-02T05:46:00.717Z,100750.59
2017-08-02T05:47:06.794Z,100752.43
2017-08-02T05:48:13.764Z,100754.23
2017-08-02T05:49:19.795Z,100752.95
2017-08-02T05:50:25.837Z,100747.48
2017-08-02T05:51:31.858Z,100750.11
2017-08-02T05:52:37.944Z,100740.22
2017-08-02T05:53:44.463Z,100743.92
2017-08-02T05:54:51.141Z,100742.24
2017-08-02T05:55:57.178Z,100741.31
2017-08-02T05:57:03.303Z,100741.22
2017-08-02T05:58:09.337Z,100738.06
2017-08-02T05:59:15.386Z,100739.03
2017-08-02T06:00:21.425Z,100735.48
2017-08-02T06:01:28.057Z,100735.82
2017-08-02T06:02:34.094Z,100731.73
2017-08-02T06:03:40.154Z,100734.05
2017-08-02T06:04:46.236Z,100740.13
2017-08-02T06:05:52.332Z,100734.45
2017-08-02T06:06:58.450Z,100740.62
2017-08-02T06:08:05.190Z,100745.42
2017-08-02T06:09:11.326Z,100748.41
2017-08-02T06:10:17.687Z,100749.68
2017-08-02T06:11:24.073Z,100755.23
2017-08-02T06:12:31.767Z,100760.78
2017-08-02T06:13:38.070Z,100764.14
2017-08-02T06:14:45.466Z,100757.73
2017-08-02T06:15:51.826Z,100763.45
2017-08-02T06:16:57.798Z,100764.97
2017-08-02T06:18:05.838Z,100771.81
2017-08-02T06:19:11.911Z,100776.67
2017-08-02T06:20:17.997Z,100779.63
2017-08-02T06:21:24.181Z,100783.39
2017-08-02T06:22:30.031Z,100777.34
2017-08-02T06:23:36.502Z,100782.63
2017-08-02T06:24:43.387Z,100787.88
2017-08-02T06:25:49.872Z,100784.23
2017-08-02T06:26:55.770Z,100790.19
2017-08-02T06:28:01.854Z,100792.16
2017-08-02T06:29:07.978Z,100795.73
2017-08-02T06:30:14.026Z,100798.52
2017-08-02T06:31:20.737Z,100799.43
2017-08-02T06:32:26.893Z,100798.17
2017-08-02T06:33:33.331Z,100798.83
2017-08-02T06:34:40.265Z,100790.87
2017-08-02T06:35:46.308Z,100793.81
2017-08-02T06:36:52.459Z,100792.32
2017-08-02T06:37:58.610Z,100786.54
2017-08-02T06:39:04.445Z,100789.80
2017-08-02T06:40:11.709Z,100787.55
2017-08-02T06:41:17.826Z,100786.58
2017-08-02T06:42:24.415Z,100788.72
2017-08-02T06:43:30.718Z,100790.88
2017-08-02T06:44:36.761Z,100795.08
2017-08-02T06:45:43.431Z,100791.22
2017-08-02T06:46:49.541Z,100793.50
2017-08-02T06:47:55.618Z,100793.86
2017-08-02T06:49:01.739Z,100790.89
2017-08-02T06:50:08.564Z,100788.70
2017-08-02T06:51:14.586Z,100786.56
2017-08-02T06:52:20.615Z,100781.92
2017-08-02T06:53:26.754Z,100780.28
2017-08-02T06:54:32.866Z,100784.91
2017-08-02T06:55:38.968Z,100780.30
2017-08-02T06:56:45.002Z,100781.77
2017-08-02T06:57:51.070Z,100788.34
2017-08-02T06:58:57.099Z,100786.22
2017-08-02T07:00:03.341Z,100793.81
2017-08-02T07:01:09.190Z,100791.37
2017-08-02T07:02:15.257Z,100791.09
2017-08-02T07:03:21.286Z,100788.17
2017-08-02T07:04:27.310Z,100792.77
2017-08-02T07:05:33.374Z,100792.73
2017-08-02T07:06:39.513Z,100793.20
2017-08-02T07:07:45.544Z,100794.30
2017-08-02T07:08:51.581Z,100803.20
2017-08-02T07:09:57.626Z,100798.27
2017-08-02T07:11:03.673Z,100799.79
2017-08-02T07:12:09.547Z,100802.69
2017-08-02T07:13:16.164Z,100804.11
2017-08-02T07:14:22.404Z,100802.04
2017-08-02T07:15:28.454Z,100804.20
2017-08-02T07:16:34.665Z,100806.84
2017-08-02T07:17:40.718Z,100804.72
2017-08-02T07:18:46.749Z,100800.83
2017-08-02T07:19:52.774Z,100805.08
2017-08-02T07:20:58.822Z,100808.58
2017-08-02T07:22:04.910Z,100802.68
2017-08-02T07:23:10.937Z,100803.16
2017-08-02T07:24:17.837Z,100811.23
2017-08-02T07:25:23.983Z,100809.45
2017-08-02T07:26:30.594Z,100810.23
2017-08-02T07:27:36.649Z,100813.14
2017-08-02T07:28:42.681Z,100803.70
2017-08-02T07:29:48.796Z,100807.97
2017-08-02T07:30:54.855Z,100805.61
2017-08-02T07:32:00.908Z,100809.63
2017-08-02T07:33:07.074Z,100807.21
2017-08-02T07:34:13.354Z,100806.13
2017-08-02T07:35:20.226Z,100814.81
2017-08-02T07:36:26.348Z,100812.27
2017-08-02T07:37:32.381Z,100819.75
2017-08-02T07:38:38.495Z,100826.13
2017-08-02T07:39:44.532Z,100824.39
2017-08-02T07:40:50.597Z,100829.59
2017-08-02T07:41:56.693Z,100832.98
2017-08-02T07:43:02.725Z,100830.84
2017-08-02T07:44:08.807Z,100826.48
2017-08-02T07:45:14.833Z,100834.23
2017-08-02T07:46:20.882Z,100837.52
2017-08-02T07:47:26.709Z,100840.19
2017-08-02T07:48:32.739Z,100838.16
2017-08-02T07:49:38.807Z,100828.34
2017-08-02T07:50:44.831Z,100827.87
2017-08-02T07:51:50.859Z,100829.57
2017-08-02T07:52:56.886Z,100827.80
2017-08-02T07:54:02.934Z,100829.45
2017-08-02T07:55:09.686Z,100829.52
2017-08-02T07:56:15.720Z,100825.69
2017-08-02T07:57:21.757Z,100825.30
2017-08-02T07:58:27.862Z,100832.28
2017-08-02T07:59:34.618Z,100829.29
2017-08-02T08:00:40.667Z,100822.94
2017-08-02T08:01:47.492Z,100833.31
2017-08-02T08:02:53.509Z,100832.27
2017-08-02T08:03:59.532Z,100826.83
2017-08-02T08:05:05.565Z,100829.10
2017-08-02T08:06:11.696Z,100823.00
2017-08-02T08:07:17.759Z,100829.63
2017-08-02T08:08:23.798Z,100825.67
2017-08-02T08:09:29.831Z,100826.78
2017-08-02T08:10:35.858Z,100818.47
2017-08-02T08:11:41.917Z,100826.72
2017-08-02T08:12:47.983Z,100816.28
2017-08-02T08:13:54.033Z,100819.64
2017-08-02T08:15:00.067Z,100817.23
2017-08-02T08:16:06.098Z,100821.51
2017-08-02T08:17:12.169Z,100825.14
2017-08-02T08:18:18.197Z,100826.68
2017-08-02T08:19:24.230Z,100825.91
2017-08-02T08:20:30.248Z,100826.41
2017-08-02T08:21:36.333Z,100822.78
2017-08-02T08:22:42.394Z,100819.20
2017-08-02T08:23:48.419Z,100822.64
2017-08-02T08:24:54.425Z,100816.63
2017-08-02T08:26:00.618Z,100823.82
2017-08-02T08:27:06.658Z,100825.80
2017-08-02T08:28:12.741Z,100828.39
2017-08-02T08:29:18.866Z,100825.08
2017-08-02T08:30:24.608Z,100830.00
2017-08-02T08:31:30.702Z,100828.42
2017-08-02T08:32:37.346Z,100827.57
2017-08-02T08:33:43.442Z,100823.89
2017-08-02T08:34:49.262Z,100830.83
2017-08-02T08:35:55.323Z,100828.05
2017-08-02T08:37:01.372Z,100832.43
2017-08-02T08:38:07.401Z,100828.22
2017-08-02T08:39:13.299Z,100835.30
2017-08-02T08:40:19.455Z,100826.45
2017-08-02T08:41:26.091Z,100828.84
2017-08-02T08:42:32.890Z,100831.38
2017-08-02T08:43:38.910Z,100833.45
2017-08-02T08:44:44.955Z,100834.42
2017-08-02T08:45:51.023Z,100831.31
2017-08-02T08:46:57.043Z,100836.34
2017-08-02T08:48:03.053Z,100833.16
2017-08-02T08:49:09.071Z,100834.13
2017-08-02T08:50:15.329Z,100834.34
2017-08-02T08:51:21.438Z,100843.73
2017-08-02T08:52:27.470Z,100842.90
2017-08-02T08:53:33.493Z,100843.70
2017-08-02T08:54:39.514Z,100842.70
2017-08-02T08:55:45.591Z,100834.88
2017-08-02T08:56:53.125Z,100840.19
2017-08-02T08:57:59.149Z,100840.07
2017-08-02T08:59:04.891Z,100844.84
2017-08-02T09:00:10.921Z,100846.17
2017-08-02T09:01:17.041Z,100847.25
2017-08-02T09:02:23.882Z,100837.55
2017-08-02T09:03:30.511Z,100840.50
2017-08-02T09:04:36.514Z,100851.73
2017-08-02T09:05:42.526Z,100847.88
2017-08-02T09:06:48.572Z,100849.80
2017-08-02T09:07:54.590Z,100850.30
2017-08-02T09:09:00.582Z,100846.42
2017-08-02T09:10:07.605Z,100841.75
2017-08-02T09:11:13.329Z,100842.55
2017-08-02T09:12:19.427Z,100845.05
2017-08-02T09:13:25.146Z,100852.92
2017-08-02T09:14:31.153Z,100844.86
2017-08-02T09:15:37.154Z,100845.44
2017-08-02T09:16:43.181Z,100850.23
2017-08-02T09:17:49.915Z,100840.66
2017-08-02T09:18:55.666Z,100828.64
2017-08-02T09:20:01.393Z,100834.28
2017-08-02T09:21:07.396Z,100841.15
2017-08-02T09:22:13.400Z,100830.82
2017-08-02T09:23:20.108Z,100822.30
2017-08-02T09:24:26.126Z,100827.64
2017-08-02T09:25:31.849Z,100823.59
2017-08-02T09:26:37.854Z,100829.23
2017-08-02T09:27:43.868Z,100823.09
2017-08-02T09:28:49.631Z,100822.79
2017-08-02T09:29:55.635Z,100821.63
2017-08-02T09:31:01.633Z,100821.03
2017-08-02T09:32:07.365Z,100824.03
2017-08-02T09:33:13.374Z,100832.41
2017-08-02T09:34:19.525Z,100827.95
2017-08-02T09:35:25.541Z,100825.64
2017-08-02T09:36:32.298Z,100826.20
2017-08-02T09:37:38.077Z,100832.12
2017-08-02T09:38:44.079Z,100828.05
2017-08-02T09:39:49.670Z,100826.92
2017-08-02T09:40:55.457Z,100825.45
2017-08-02T09:42:01.468Z,100821.66
2017-08-02T09:43:07.021Z,100826.45
2017-08-02T09:44:13.015Z,100824.61
2017-08-02T09:45:19.817Z,100826.63
2017-08-02T09:46:25.833Z,100828.84
2017-08-02T09:47:32.189Z,100827.83
2017-08-02T09:48:37.908Z,100832.59
2017-08-02T09:49:43.752Z,100828.07
2017-08-02T09:50:49.519Z,100831.80
2017-08-02T09:51:55.588Z,100839.00
2017-08-02T09:53:01.677Z,100840.63
2017-08-02T09:54:07.687Z,100834.88
2017-08-02T09:55:13.732Z,100838.33
2017-08-02T09:56:19.579Z,100840.05
2017-08-02T09:57:25.296Z,100838.18
2017-08-02T09:58:31.422Z,100839.28
2017-08-02T09:59:37.459Z,100835.06
2017-08-02T10:00:43.486Z,100832.43
2017-08-02T10:01:49.873Z,100837.44
2017-08-02T10:02:55.881Z,100827.36
2017-08-02T10:04:01.653Z,100831.73
2017-08-02T10:05:07.658Z,100823.71
2017-08-02T10:06:13.938Z,100820.98
2017-08-02T10:07:19.759Z,100820.48
2017-08-02T10:08:25.758Z,100832.88
2017-08-02T10:09:31.481Z,100827.79
2017-08-02T10:10:37.193Z,100830.45
2017-08-02T10:11:42.902Z,100832.36
2017-08-02T10:12:48.648Z,100827.58
2017-08-02T10:13:54.385Z,100831.50
2017-08-02T10:15:00.174Z,100825.66
2017-08-02T10:16:06.187Z,100820.58
2017-08-02T10:17:12.200Z,100817.05
2017-08-02T10:18:17.960Z,100814.28
2017-08-02T10:19:23.662Z,100818.30
2017-08-02T10:20:29.371Z,100819.58
2017-08-02T10:21:36.058Z,100819.72
2017-08-02T10:22:42.379Z,100817.97
2017-08-02T10:23:48.131Z,100810.64
2017-08-02T10:24:54.125Z,100810.66
2017-08-02T10:26:00.224Z,100803.67
2017-08-02T10:27:06.751Z,100808.00
2017-08-02T10:28:12.458Z,100810.17
2017-08-02T10:29:18.209Z,100811.28
2017-08-02T10:30:23.931Z,100808.73
2017-08-02T10:31:29.754Z,100801.15
2017-08-02T10:32:35.813Z,100809.05
2017-08-02T10:33:41.525Z,100805.16
2017-08-02T10:34:47.310Z,100802.87
2017-08-02T10:35:53.037Z,100806.63
2017-08-02T10:36:58.829Z,100803.80
2017-08-02T10:38:04.845Z,100800.46
2017-08-02T10:39:10.564Z,100794.05
2017-08-02T10:40:16.387Z,100800.98
2017-08-02T10:41:22.780Z,100797.83
2017-08-02T10:42:28.509Z,100796.91
2017-08-02T10:43:34.509Z,100801.08
2017-08-02T10:44:40.857Z,100796.47
2017-08-02T10:45:46.927Z,100798.49
2017-08-02T10:46:52.950Z,100802.59
2017-08-02T10:47:58.677Z,100798.80
2017-08-02T10:49:04.412Z,100802.50
2017-08-02T10:50:10.182Z,100799.67
2017-08-02T10:51:15.909Z,100795.80
2017-08-02T10:52:21.909Z,100794.44
2017-08-02T10:53:27.633Z,100798.53
2017-08-02T10:54:33.561Z,100799.92
2017-08-02T10:55:39.392Z,100800.16
2017-08-02T10:56:45.435Z,100799.73
2017-08-02T10:57:51.154Z,100796.20
2017-08-02T10:58:57.179Z,100793.54
2017-08-02T11:00:02.907Z,100794.48
2017-08-02T11:01:08.682Z,100787.71
2017-08-02T11:02:14.706Z,100792.69
2017-08-02T11:03:20.731Z,100789.44
2017-08-02T11:04:26.528Z,100782.52
2017-08-02T11:05:32.534Z,100783.20
2017-08-02T11:06:38.275Z,100779.16
2017-08-02T11:07:44.282Z,100780.48
2017-08-02T11:08:50.331Z,100778.50
2017-08-02T11:09:56.049Z,100777.34
2017-08-02T11:11:01.834Z,100775.46
2017-08-02T11:12:07.570Z,100776.23
2017-08-02T11:13:13.344Z,100771.89
2017-08-02T11:14:19.101Z,100774.13
2017-08-02T11:15:24.822Z,100765.87
2017-08-02T11:16:30.630Z,100768.13
2017-08-02T11:17:36.369Z,100766.48
2017-08-02T11:18:42.264Z,100761.94
2017-08-02T11:19:48.010Z,100764.98
2017-08-02T11:20:53.717Z,100759.52
2017-08-02T11:21:59.738Z,100761.45
2017-08-02T11:23:05.487Z,100758.15
2017-08-02T11:24:11.171Z,100753.22
2017-08-02T11:25:16.889Z,100757.80
2017-08-02T11:26:22.607Z,100758.73
2017-08-02T11:27:28.374Z,100753.37
2017-08-02T11:28:34.767Z,100754.48
2017-08-02T11:29:40.785Z,100752.09
2017-08-02T11:30:46.503Z,100747.01
2017-08-02T11:31:52.998Z,100758.68
2017-08-02T11:32:58.753Z,100753.83
2017-08-02T11:34:04.489Z,100757.09
2017-08-02T11:35:11.015Z,100765.44
2017-08-02T11:36:16.786Z,100760.81
2017-08-02T11:37:22.535Z,100762.16
2017-08-02T11:38:28.309Z,100764.09
2017-08-02T11:39:34.994Z,100756.14
2017-08-02T11:40:40.717Z,100761.55
2017-08-02T11:41:46.538Z,100763.63
2017-08-02T11:42:52.249Z,100766.41
2017-08-02T11:43:58.164Z,100765.89
2017-08-02T11:45:03.527Z,100759.23
2017-08-02T11:46:09.301Z,100770.42
2017-08-02T11:47:15.022Z,100763.25
2017-08-02T11:48:20.751Z,100764.88
2017-08-02T11:49:26.591Z,100768.98
2017-08-02T11:50:32.399Z,100767.41
2017-08-02T11:51:38.110Z,100762.56
2017-08-02T11:52:44.036Z,100765.91
2017-08-02T11:53:49.744Z,100761.89
2017-08-02T11:54:55.487Z,100759.86
2017-08-02T11:56:01.302Z,100762.86
2017-08-02T11:57:07.034Z,100763.44
2017-08-02T11:58:12.781Z,100753.80
2017-08-02T11:59:18.574Z,100751.95
2017-08-02T12:00:24.306Z,100755.87
2017-08-02T12:01:30.092Z,100748.75
2017-08-02T12:02:35.794Z,100740.16
2017-08-02T12:03:42.111Z,100743.20
2017-08-02T12:04:47.849Z,100747.15
2017-08-02T12:05:53.555Z,100747.15
2017-08-02T12:06:59.053Z,100754.11
2017-08-02T12:08:04.771Z,100754.53
2017-08-02T12:09:10.488Z,100747.76
2017-08-02T12:10:16.246Z,100750.31
2017-08-02T12:11:21.973Z,100748.18
2017-08-02T12:12:27.331Z,100744.63
2017-08-02T12:13:33.058Z,100742.91
2017-08-02T12:14:38.769Z,100740.87
2017-08-02T12:15:44.522Z,100736.25
2017-08-02T12:16:50.239Z,100742.33
2017-08-02T12:17:55.988Z,100731.43
2017-08-02T12:19:01.706Z,100734.64
2017-08-02T12:20:07.470Z,100739.91
2017-08-02T12:21:13.215Z,100737.63
2017-08-02T12:22:18.798Z,100725.16
2017-08-02T12:23:25.181Z,100741.73
2017-08-02T12:24:30.906Z,100737.79
2017-08-02T12:25:36.676Z,100737.05
2017-08-02T12:26:42.471Z,100739.25
2017-08-02T12:27:48.182Z,100737.23
2017-08-02T12:28:53.901Z,100736.73
2017-08-02T12:29:59.626Z,100738.34
2017-08-02T12:31:05.118Z,100739.53
2017-08-02T12:32:10.966Z,100738.89
2017-08-02T12:33:16.698Z,100739.03
2017-08-02T12:34:22.208Z,100734.45